createdAt,value
2023-04-03T00:01:48.973Z,102643.66
2023-04-03T00:04:13.014Z,102641.84
2023-04-03T00:06:37.004Z,102643.88
2023-04-03T00:09:01.404Z,102644.47
2023-04-03T00:11:25.275Z,102642.06
2023-04-03T00:13:50.552Z,102640.31
2023-04-03T00:16:14.486Z,102639.34
2023-04-03T00:18:38.463Z,102635.69
2023-04-03T00:21:02.356Z,102641.81
2023-04-03T00:23:26.210Z,102637.66
2023-04-03T00:25:49.879Z,102641.31
2023-04-03T00:28:13.690Z,102642.31
2023-04-03T00:30:39.207Z,102641.63
2023-04-03T00:33:03.288Z,102639.63
2023-04-03T00:35:27.509Z,102649.31
2023-04-03T00:37:53.425Z,102648.69
2023-04-03T00:40:18.300Z,102645.03
2023-04-03T00:42:45.356Z,102636.28
2023-04-03T00:45:41.567Z,102646.81
2023-04-03T00:48:11.111Z,102639.00
2023-04-03T00:50:39.803Z,102646.94
2023-04-03T00:53:04.018Z,102643.47
2023-04-03T00:55:28.193Z,102640.75
2023-04-03T00:57:52.293Z,102641.56
2023-04-03T01:00:19.646Z,102646.09
2023-04-03T01:02:43.405Z,102646.19
2023-04-03T01:05:11.220Z,102649.56
2023-04-03T01:07:38.017Z,102648.66
2023-04-03T01:10:05.895Z,102647.66
2023-04-03T01:12:33.069Z,102656.72
2023-04-03T01:14:59.955Z,102660.97
2023-04-03T01:17:34.288Z,102656.63
2023-04-03T01:20:52.108Z,102649.44
2023-04-03T01:23:32.847Z,102652.41
2023-04-03T01:25:58.934Z,102647.03
2023-04-03T01:28:26.820Z,102653.38
2023-04-03T01:30:55.808Z,102653.47
2023-04-03T01:33:21.595Z,102655.03
2023-04-03T01:35:45.697Z,102660.34
2023-04-03T01:38:10.037Z,102660.31
2023-04-03T01:40:34.114Z,102660.31
2023-04-03T01:42:58.034Z,102673.56
2023-04-03T01:45:21.949Z,102672.78
2023-04-03T01:47:45.863Z,102671.03
2023-04-03T01:50:11.910Z,102671.84
2023-04-03T01:52:35.654Z,102667.53
2023-04-03T01:54:59.436Z,102668.34
2023-04-03T01:57:23.203Z,102679.94
2023-04-03T01:59:47.076Z,102675.56
2023-04-03T02:02:10.818Z,102675.78
2023-04-03T02:04:34.629Z,102674.88
2023-04-03T02:06:59.829Z,102681.88
2023-04-03T02:09:23.557Z,102671.25
2023-04-03T02:11:49.303Z,102668.75
2023-04-03T02:14:13.098Z,102667.00
2023-04-03T02:16:36.976Z,102670.56
2023-04-03T02:19:00.920Z,102679.44
2023-04-03T02:21:24.878Z,102691.94
2023-04-03T02:23:50.121Z,102693.63
2023-04-03T02:26:17.137Z,102687.56
2023-04-03T02:28:43.182Z,102689.38
2023-04-03T02:31:08.544Z,102693.00
2023-04-03T02:33:33.579Z,102693.88
2023-04-03T02:35:58.223Z,102698.22
2023-04-03T02:38:22.181Z,102698.19
2023-04-03T02:40:47.665Z,102702.69
2023-04-03T02:43:11.722Z,102709.66
2023-04-03T02:45:35.606Z,102704.38
2023-04-03T02:47:59.849Z,102709.72
2023-04-03T02:50:23.588Z,102711.50
2023-04-03T02:52:47.345Z,102706.22
2023-04-03T02:55:11.289Z,102710.69
2023-04-03T02:57:36.745Z,102709.81
2023-04-03T03:00:00.737Z,102714.25
2023-04-03T03:02:24.585Z,102709.75
2023-04-03T03:04:48.401Z,102713.31
2023-04-03T03:07:12.220Z,102719.56
2023-04-03T03:09:36.077Z,102719.50
2023-04-03T03:11:59.808Z,102724.69
2023-04-03T03:14:25.045Z,102723.94
2023-04-03T03:16:48.784Z,102720.38
2023-04-03T03:19:12.729Z,102719.53
2023-04-03T03:21:36.838Z,102732.66
2023-04-03T03:24:00.678Z,102721.13
2023-04-03T03:26:24.841Z,102723.78
2023-04-03T03:28:48.543Z,102726.53
2023-04-03T03:31:14.553Z,102729.13
2023-04-03T03:33:38.372Z,102724.75
2023-04-03T03:36:02.461Z,102724.69
2023-04-03T03:38:26.947Z,102729.16
2023-04-03T03:40:52.406Z,102724.81
2023-04-03T03:43:18.025Z,102733.50
2023-04-03T03:45:42.733Z,102730.00
2023-04-03T03:48:08.185Z,102732.66
2023-04-03T03:50:32.498Z,102724.72
2023-04-03T03:52:56.488Z,102730.88
2023-04-03T03:55:20.349Z,102727.41
2023-04-03T03:57:48.682Z,102723.06
2023-04-03T04:00:13.941Z,102732.78
2023-04-03T04:02:45.347Z,102728.38
2023-04-03T04:05:14.318Z,102734.66
2023-04-03T04:07:38.410Z,102725.81
2023-04-03T04:10:02.225Z,102733.72
2023-04-03T04:12:26.191Z,102719.66
2023-04-03T04:14:50.055Z,102720.53
2023-04-03T04:17:13.929Z,102726.63
2023-04-03T04:19:37.719Z,102725.81
2023-04-03T04:22:02.892Z,102718.75
2023-04-03T04:24:28.244Z,102722.31
2023-04-03T04:26:53.551Z,102722.25
2023-04-03T04:29:18.738Z,102723.09
2023-04-03T04:31:45.530Z,102725.75
2023-04-03T04:34:09.635Z,102719.63
2023-04-03T04:36:34.633Z,102725.88
2023-04-03T04:39:00.012Z,102735.53
2023-04-03T04:41:25.130Z,102733.75
2023-04-03T04:43:49.734Z,102733.72
2023-04-03T04:46:14.000Z,102738.19
2023-04-03T04:48:43.313Z,102738.19
2023-04-03T04:51:08.058Z,102750.50
2023-04-03T04:53:33.943Z,102739.00
2023-04-03T04:55:59.708Z,102748.72
2023-04-03T04:58:23.547Z,102753.94
2023-04-03T05:00:48.197Z,102754.81
2023-04-03T05:03:12.217Z,102759.25
2023-04-03T05:05:36.702Z,102759.22
2023-04-03T05:08:00.721Z,102763.59
2023-04-03T05:10:24.715Z,102759.22
2023-04-03T05:12:50.891Z,102767.16
2023-04-03T05:15:14.750Z,102766.31
2023-04-03T05:17:38.891Z,102766.28
2023-04-03T05:20:05.603Z,102772.41
2023-04-03T05:22:29.421Z,102770.63
2023-04-03T05:24:57.937Z,102765.34
2023-04-03T05:27:22.399Z,102764.50
2023-04-03T05:29:51.587Z,102756.53
2023-04-03T05:32:18.519Z,102767.06
2023-04-03T05:34:46.022Z,102775.94
2023-04-03T05:37:10.064Z,102776.78
2023-04-03T05:39:34.209Z,102779.44
2023-04-03T05:41:59.636Z,102767.94
2023-04-03T05:44:23.588Z,102779.34
2023-04-03T05:46:49.962Z,102782.00
2023-04-03T05:49:13.925Z,102781.91
2023-04-03T05:51:40.004Z,102788.06
2023-04-03T05:54:16.824Z,102784.50
2023-04-03T05:56:41.176Z,102790.47
2023-04-03T05:59:05.055Z,102793.09
2023-04-03T06:01:29.093Z,102794.66
2023-04-03T06:03:55.498Z,102791.13
2023-04-03T06:06:19.437Z,102801.38
2023-04-03T06:08:44.676Z,102799.91
2023-04-03T06:11:09.802Z,102800.78
2023-04-03T06:13:34.477Z,102801.22
2023-04-03T06:15:59.614Z,102797.28
2023-04-03T06:18:23.252Z,102804.22
2023-04-03T06:20:48.625Z,102795.56
2023-04-03T06:23:13.036Z,102806.06
2023-04-03T06:25:36.838Z,102797.13
2023-04-03T06:28:01.084Z,102804.88
2023-04-03T06:30:24.910Z,102807.34
2023-04-03T06:32:48.547Z,102800.13
2023-04-03T06:35:12.433Z,102804.69
2023-04-03T06:37:37.463Z,102801.69
2023-04-03T06:40:02.363Z,102803.97
2023-04-03T06:42:26.392Z,102810.13
2023-04-03T06:45:02.864Z,102803.44
2023-04-03T06:47:26.632Z,102812.47
2023-04-03T06:49:50.660Z,102804.38
2023-04-03T06:52:14.366Z,102823.00
2023-04-03T06:54:39.409Z,102820.28
2023-04-03T06:57:03.134Z,102816.75
2023-04-03T06:59:27.253Z,102823.84
2023-04-03T07:01:51.434Z,102820.13
2023-04-03T07:04:15.573Z,102820.50
2023-04-03T07:06:39.312Z,102825.59
2023-04-03T07:09:03.820Z,102824.75
2023-04-03T07:11:30.436Z,102837.06
2023-04-03T07:13:54.323Z,102829.06
2023-04-03T07:16:18.358Z,102829.97
2023-04-03T07:18:42.474Z,102830.25
2023-04-03T07:21:07.167Z,102836.59
2023-04-03T07:23:30.865Z,102832.69
2023-04-03T07:25:55.261Z,102844.41
2023-04-03T07:28:21.870Z,102846.03
2023-04-03T07:30:47.332Z,102841.13
2023-04-03T07:33:11.048Z,102851.19
2023-04-03T07:35:34.793Z,102848.19
2023-04-03T07:37:58.487Z,102846.22
2023-04-03T07:40:22.448Z,102859.28
2023-04-03T07:42:46.349Z,102858.72
2023-04-03T07:45:13.017Z,102862.53
2023-04-03T07:47:37.195Z,102861.31
2023-04-03T07:50:00.924Z,102862.06
2023-04-03T07:52:24.607Z,102867.81
2023-04-03T07:54:48.397Z,102853.09
2023-04-03T07:57:12.711Z,102856.84
2023-04-03T07:59:36.514Z,102858.50
2023-04-03T08:02:01.555Z,102865.00
2023-04-03T08:04:26.140Z,102854.03
2023-04-03T08:06:49.814Z,102857.31
2023-04-03T08:09:13.463Z,102868.56
2023-04-03T08:11:37.572Z,102856.06
2023-04-03T08:14:01.240Z,102853.75
2023-04-03T08:16:27.944Z,102860.66
2023-04-03T08:18:53.055Z,102858.78
2023-04-03T08:21:16.988Z,102865.66
2023-04-03T08:23:42.106Z,102872.88
2023-04-03T08:26:11.493Z,102861.84
2023-04-03T08:28:35.257Z,102861.34
2023-04-03T08:30:59.331Z,102859.25
2023-04-03T08:33:23.132Z,102862.94
2023-04-03T08:35:48.190Z,102861.63
2023-04-03T08:38:12.655Z,102853.44
2023-04-03T08:40:36.562Z,102862.72
2023-04-03T08:43:17.702Z,102866.38
2023-04-03T08:45:51.322Z,102859.09
2023-04-03T08:48:18.394Z,102850.56
2023-04-03T08:50:46.188Z,102853.88
2023-04-03T08:53:17.893Z,102851.63
2023-04-03T08:55:46.177Z,102849.38
2023-04-03T08:58:14.962Z,102851.94
2023-04-03T09:00:47.625Z,102852.09
2023-04-03T09:03:16.167Z,102848.41
2023-04-03T09:05:47.548Z,102847.31
2023-04-03T09:08:24.612Z,102853.25
2023-04-03T09:10:48.492Z,102848.03
2023-04-03T09:13:26.652Z,102856.25
2023-04-03T09:15:50.509Z,102846.84
2023-04-03T09:18:21.264Z,102847.25
2023-04-03T09:20:54.674Z,102838.09
2023-04-03T09:23:27.491Z,102836.59
2023-04-03T09:25:55.878Z,102835.34
2023-04-03T09:28:19.604Z,102835.41
2023-04-03T09:30:43.792Z,102840.31
2023-04-03T09:33:08.655Z,102844.50
2023-04-03T09:35:44.965Z,102846.94
2023-04-03T09:38:22.922Z,102831.31
2023-04-03T09:40:48.516Z,102835.59
2023-04-03T09:43:31.550Z,102837.72
2023-04-03T09:45:56.749Z,102834.75
2023-04-03T09:48:22.710Z,102835.88
2023-04-03T09:51:00.461Z,102828.97
2023-04-03T09:53:36.411Z,102824.41
2023-04-03T09:56:01.150Z,102827.69
2023-04-03T09:58:42.573Z,102820.56
2023-04-03T10:01:26.379Z,102821.41
2023-04-03T10:04:10.534Z,102819.78
2023-04-03T10:06:37.623Z,102816.38
2023-04-03T10:09:06.236Z,102819.50
2023-04-03T10:11:30.141Z,102811.16
2023-04-03T10:13:57.520Z,102809.50
2023-04-03T10:16:28.575Z,102818.94
2023-04-03T10:19:09.577Z,102810.69
2023-04-03T10:21:43.948Z,102807.66
2023-04-03T10:24:14.840Z,102822.88
2023-04-03T10:26:48.225Z,102814.50
2023-04-03T10:29:27.918Z,102824.72
2023-04-03T10:32:02.020Z,102810.44
2023-04-03T10:34:32.587Z,102808.34
2023-04-03T10:37:04.847Z,102805.63
2023-04-03T10:39:37.133Z,102802.94
2023-04-03T10:42:15.957Z,102788.69
2023-04-03T10:44:57.860Z,102783.94
2023-04-03T10:47:24.886Z,102783.25
2023-04-03T10:49:59.977Z,102779.59
2023-04-03T10:52:30.922Z,102780.28
2023-04-03T10:55:09.422Z,102787.88
2023-04-03T10:57:33.437Z,102774.63
2023-04-03T11:00:01.908Z,102777.88
2023-04-03T11:02:31.386Z,102775.25
2023-04-03T11:05:02.196Z,102785.97
2023-04-03T11:07:29.624Z,102777.94
2023-04-03T11:09:59.472Z,102769.16
2023-04-03T11:12:28.481Z,102770.06
2023-04-03T11:14:55.193Z,102773.78
2023-04-03T11:17:31.511Z,102764.97
2023-04-03T11:20:07.892Z,102767.16
2023-04-03T11:22:37.616Z,102759.72
2023-04-03T11:25:16.424Z,102753.94
2023-04-03T11:27:46.994Z,102761.75
2023-04-03T11:30:20.710Z,102750.00
2023-04-03T11:33:13.038Z,102754.53
2023-04-03T11:35:38.057Z,102753.88
2023-04-03T11:38:04.323Z,102748.41
2023-04-03T11:40:33.920Z,102763.09
2023-04-03T11:43:09.246Z,102761.06
2023-04-03T11:45:41.176Z,102750.53
2023-04-03T11:48:21.226Z,102752.38
2023-04-03T11:50:48.845Z,102765.41
2023-04-03T11:53:35.497Z,102763.50
2023-04-03T11:56:07.302Z,102761.88
2023-04-03T11:58:33.465Z,102757.63
2023-04-03T12:01:05.151Z,102759.88
2023-04-03T12:04:09.844Z,102759.22
2023-04-03T12:07:18.938Z,102766.09
2023-04-03T12:10:32.100Z,102761.63
2023-04-03T12:13:03.592Z,102757.72
2023-04-03T12:16:01.060Z,102767.50
2023-04-03T12:19:01.260Z,102764.97
2023-04-03T12:21:27.333Z,102764.91
2023-04-03T12:24:16.210Z,102767.94
2023-04-03T12:26:49.107Z,102754.84
2023-04-03T12:29:23.153Z,102760.53
2023-04-03T12:32:01.257Z,102751.69
2023-04-03T12:34:46.659Z,102748.94
2023-04-03T12:37:23.742Z,102750.00
2023-04-03T12:40:06.837Z,102747.53
2023-04-03T12:43:16.063Z,102740.13
2023-04-03T12:45:49.758Z,102741.97
2023-04-03T12:48:19.072Z,102738.50
2023-04-03T12:50:44.478Z,102736.41
2023-04-03T12:53:14.968Z,102738.47
2023-04-03T12:55:38.983Z,102730.25
2023-04-03T12:58:18.609Z,102728.72
2023-04-03T13:00:42.400Z,102736.97
2023-04-03T13:03:09.501Z,102737.31
2023-04-03T13:05:36.726Z,102731.38
2023-04-03T13:08:04.717Z,102735.66
2023-04-03T13:10:28.513Z,102730.75
2023-04-03T13:12:55.383Z,102723.38
2023-04-03T13:15:22.339Z,102722.97
2023-04-03T13:17:46.410Z,102726.41
2023-04-03T13:20:21.025Z,102723.53
2023-04-03T13:22:52.453Z,102723.34
2023-04-03T13:25:18.816Z,102720.91
2023-04-03T13:27:45.009Z,102726.59
2023-04-03T13:30:22.470Z,102724.97
2023-04-03T13:32:46.675Z,102732.22
2023-04-03T13:35:39.199Z,102727.44
2023-04-03T13:38:08.010Z,102722.88
2023-04-03T13:40:41.428Z,102723.28
2023-04-03T13:43:21.565Z,102716.63
2023-04-03T13:46:15.749Z,102711.41
2023-04-03T13:48:42.657Z,102719.25
2023-04-03T13:51:20.042Z,102726.44
2023-04-03T13:53:47.511Z,102710.91
2023-04-03T13:56:21.763Z,102715.19
2023-04-03T13:58:58.031Z,102711.38
2023-04-03T14:01:24.426Z,102713.97
2023-04-03T14:03:55.394Z,102716.69
2023-04-03T14:06:21.764Z,102712.09
2023-04-03T14:08:46.331Z,102715.53
2023-04-03T14:11:17.300Z,102717.28
2023-04-03T14:13:41.094Z,102712.94
2023-04-03T14:16:15.413Z,102715.81
2023-04-03T14:18:40.245Z,102718.88
2023-04-03T14:21:03.960Z,102708.00
2023-04-03T14:23:29.170Z,102700.84
2023-04-03T14:25:52.793Z,102696.75
2023-04-03T14:28:21.828Z,102690.22
2023-04-03T14:30:46.317Z,102693.22
2023-04-03T14:33:16.350Z,102695.03
2023-04-03T14:35:40.239Z,102688.69
2023-04-03T14:38:03.969Z,102690.75
2023-04-03T14:40:30.172Z,102700.41
2023-04-03T14:42:56.315Z,102698.06
2023-04-03T14:45:20.638Z,102692.25
2023-04-03T14:47:49.300Z,102697.44
2023-04-03T14:50:17.461Z,102697.00
2023-04-03T14:52:42.187Z,102684.16
2023-04-03T14:55:08.509Z,102687.97
2023-04-03T14:57:33.945Z,102686.59
2023-04-03T14:59:57.830Z,102692.91
2023-04-03T15:02:30.897Z,102690.03
2023-04-03T15:04:55.310Z,102693.94
2023-04-03T15:07:19.396Z,102691.00
2023-04-03T15:09:43.446Z,102687.34
2023-04-03T15:12:07.427Z,102693.22
2023-04-03T15:14:37.380Z,102691.94
2023-04-03T15:17:18.013Z,102683.81
2023-04-03T15:19:42.077Z,102692.13
2023-04-03T15:22:05.780Z,102684.41
2023-04-03T15:24:29.426Z,102682.22
2023-04-03T15:26:53.042Z,102683.22
2023-04-03T15:29:16.754Z,102686.50
2023-04-03T15:31:41.795Z,102680.66
2023-04-03T15:34:05.896Z,102686.78
2023-04-03T15:36:34.687Z,102679.09
2023-04-03T15:38:58.741Z,102683.53
2023-04-03T15:41:22.357Z,102681.31
2023-04-03T15:43:46.272Z,102678.56
2023-04-03T15:46:10.147Z,102675.22
2023-04-03T15:48:35.435Z,102667.72
2023-04-03T15:50:59.400Z,102670.50
2023-04-03T15:53:23.125Z,102674.38
2023-04-03T15:55:46.866Z,102681.59
2023-04-03T15:58:11.949Z,102670.88
2023-04-03T16:00:36.025Z,102676.59
2023-04-03T16:03:05.205Z,102672.47
2023-04-03T16:05:30.971Z,102682.16
2023-04-03T16:07:54.851Z,102677.56
2023-04-03T16:10:20.803Z,102682.09
2023-04-03T16:12:44.444Z,102678.44
2023-04-03T16:15:09.577Z,102675.16
2023-04-03T16:17:34.604Z,102684.06
2023-04-03T16:19:58.374Z,102682.16
2023-04-03T16:22:24.148Z,102679.66
2023-04-03T16:24:47.809Z,102673.19
2023-04-03T16:27:11.475Z,102669.03
2023-04-03T16:29:35.210Z,102666.50
2023-04-03T16:32:00.605Z,102674.22
2023-04-03T16:34:24.410Z,102683.84
2023-04-03T16:36:48.064Z,102682.81
2023-04-03T16:39:13.262Z,102688.34
2023-04-03T16:41:36.868Z,102690.91
2023-04-03T16:44:00.482Z,102689.47
2023-04-03T16:46:24.202Z,102694.19
2023-04-03T16:48:47.940Z,102687.63
2023-04-03T16:51:11.602Z,102690.88
2023-04-03T16:53:35.362Z,102689.63
2023-04-03T16:56:01.626Z,102688.81
2023-04-03T16:58:25.241Z,102694.50
2023-04-03T17:00:49.405Z,102689.50
2023-04-03T17:03:13.262Z,102688.63
2023-04-03T17:05:37.104Z,102692.47
2023-04-03T17:08:01.742Z,102687.81
2023-04-03T17:10:25.622Z,102695.19
2023-04-03T17:12:50.668Z,102689.72
2023-04-03T17:15:14.275Z,102695.06
2023-04-03T17:17:38.645Z,102690.75
2023-04-03T17:20:02.617Z,102688.88
2023-04-03T17:22:26.391Z,102689.75
2023-04-03T17:24:50.005Z,102689.00
2023-04-03T17:27:13.961Z,102686.16
2023-04-03T17:29:38.986Z,102692.28
2023-04-03T17:32:02.686Z,102684.59
2023-04-03T17:34:26.581Z,102685.06
2023-04-03T17:36:50.599Z,102688.72
2023-04-03T17:39:14.381Z,102690.28
2023-04-03T17:41:38.362Z,102703.22
2023-04-03T17:44:02.195Z,102704.50
2023-04-03T17:46:28.268Z,102699.50
2023-04-03T17:48:52.496Z,102702.25
2023-04-03T17:51:20.858Z,102702.94
2023-04-03T17:53:45.635Z,102707.72
2023-04-03T17:56:10.601Z,102699.22
2023-04-03T17:58:34.330Z,102703.06
2023-04-03T18:00:58.176Z,102702.06
2023-04-03T18:03:23.225Z,102701.25
2023-04-03T18:05:46.971Z,102702.34
2023-04-03T18:08:10.721Z,102695.31
2023-04-03T18:10:35.172Z,102694.94
2023-04-03T18:12:58.959Z,102699.59
2023-04-03T18:15:22.755Z,102699.56
2023-04-03T18:17:47.343Z,102704.84
2023-04-03T18:20:15.168Z,102709.72
2023-04-03T18:22:39.043Z,102707.50
2023-04-03T18:25:02.808Z,102710.16
2023-04-03T18:27:28.901Z,102712.38
2023-04-03T18:29:57.492Z,102714.59
2023-04-03T18:32:23.508Z,102711.25
2023-04-03T18:34:47.185Z,102715.56
2023-04-03T18:37:12.315Z,102722.66
2023-04-03T18:39:36.332Z,102714.81
2023-04-03T18:42:06.089Z,102726.28
2023-04-03T18:44:30.069Z,102729.31
2023-04-03T18:46:57.007Z,102724.78
2023-04-03T18:49:21.460Z,102714.34
2023-04-03T18:51:45.379Z,102721.22
2023-04-03T18:54:10.453Z,102719.38
2023-04-03T18:56:34.069Z,102718.56
2023-04-03T18:58:57.841Z,102721.81
2023-04-03T19:01:21.590Z,102722.47
2023-04-03T19:03:46.034Z,102723.47
2023-04-03T19:06:09.929Z,102721.97
2023-04-03T19:08:33.901Z,102719.56
2023-04-03T19:10:58.947Z,102721.00
2023-04-03T19:13:22.681Z,102716.06
2023-04-03T19:15:46.381Z,102716.09
2023-04-03T19:18:10.054Z,102712.00
2023-04-03T19:20:33.951Z,102713.97
2023-04-03T19:22:57.591Z,102713.22
2023-04-03T19:25:21.681Z,102715.06
2023-04-03T19:27:47.276Z,102699.50
2023-04-03T19:30:13.253Z,102699.66
2023-04-03T19:32:37.266Z,102702.34
2023-04-03T19:35:01.181Z,102699.59
2023-04-03T19:37:25.001Z,102704.59
2023-04-03T19:39:48.600Z,102702.69
2023-04-03T19:42:12.324Z,102697.88
2023-04-03T19:44:38.450Z,102698.78
2023-04-03T19:47:03.019Z,102702.66
2023-04-03T19:49:27.235Z,102699.31
2023-04-03T19:51:50.947Z,102697.22
2023-04-03T19:54:14.596Z,102706.16
2023-04-03T19:56:38.212Z,102707.06
2023-04-03T19:59:01.919Z,102710.75
2023-04-03T20:01:30.065Z,102703.41
2023-04-03T20:03:54.112Z,102717.66
2023-04-03T20:06:18.111Z,102712.13
2023-04-03T20:08:43.689Z,102709.28
2023-04-03T20:11:07.770Z,102711.09
2023-04-03T20:13:31.642Z,102710.75
2023-04-03T20:15:56.175Z,102712.91
2023-04-03T20:18:22.624Z,102708.47
2023-04-03T20:20:47.057Z,102711.38
2023-04-03T20:23:11.892Z,102709.47
2023-04-03T20:28:02.065Z,102715.88
2023-04-03T20:30:25.849Z,102712.63
2023-04-03T20:32:49.993Z,102717.53
2023-04-03T20:35:15.506Z,102711.81
2023-04-03T20:37:40.237Z,102710.06
2023-04-03T20:40:04.803Z,102715.25
2023-04-03T20:42:28.591Z,102719.25
2023-04-03T20:44:52.285Z,102709.84
2023-04-03T20:47:16.204Z,102706.53
2023-04-03T20:49:39.915Z,102706.38
2023-04-03T20:52:05.486Z,102706.38
2023-04-03T20:54:29.797Z,102709.69
2023-04-03T20:56:53.558Z,102705.28
2023-04-03T20:59:17.737Z,102702.78
2023-04-03T21:01:42.406Z,102702.88
2023-04-03T21:04:14.317Z,102700.19
2023-04-03T21:07:33.961Z,102685.47
2023-04-03T21:10:54.294Z,102691.81
2023-04-03T21:14:14.384Z,102689.06
2023-04-03T21:16:38.626Z,102696.31
2023-04-03T21:19:13.656Z,102695.59
2023-04-03T21:21:38.064Z,102686.44
2023-04-03T21:24:06.419Z,102689.56
2023-04-03T21:26:30.207Z,102689.19
2023-04-03T21:28:54.166Z,102693.00
2023-04-03T21:31:17.891Z,102693.91
2023-04-03T21:33:42.404Z,102695.78
2023-04-03T21:36:08.878Z,102696.00
2023-04-03T21:38:32.491Z,102692.25
2023-04-03T21:40:58.519Z,102694.13
2023-04-03T21:43:22.657Z,102692.56
2023-04-03T21:45:46.816Z,102694.56
2023-04-03T21:48:13.711Z,102693.22
2023-04-03T21:50:38.157Z,102696.94
2023-04-03T21:53:03.225Z,102693.50
2023-04-03T21:55:26.921Z,102696.38
2023-04-03T21:57:53.653Z,102694.78
2023-04-03T22:00:19.048Z,102691.25
2023-04-03T22:02:42.807Z,102695.50
2023-04-03T22:05:07.398Z,102691.13
2023-04-03T22:07:31.485Z,102697.34
2023-04-03T22:09:56.729Z,102698.31
2023-04-03T22:12:20.625Z,102687.94
2023-04-03T22:14:44.641Z,102687.19
2023-04-03T22:17:08.327Z,102690.63
2023-04-03T22:19:31.935Z,102691.59
2023-04-03T22:21:55.665Z,102684.59
2023-04-03T22:24:20.425Z,102687.16
2023-04-03T22:26:45.478Z,102689.72
2023-04-03T22:29:09.156Z,102689.81
2023-04-03T22:31:32.884Z,102689.88
2023-04-03T22:33:56.709Z,102689.06
2023-04-03T22:36:20.532Z,102686.28
2023-04-03T22:38:45.002Z,102689.00
2023-04-03T22:41:09.304Z,102683.75
2023-04-03T22:43:36.735Z,102690.13
2023-04-03T22:46:02.188Z,102696.34
2023-04-03T22:48:26.096Z,102683.94
2023-04-03T22:50:49.776Z,102691.03
2023-04-03T22:53:13.512Z,102689.31
2023-04-03T22:55:37.749Z,102692.94
2023-04-03T22:58:01.614Z,102699.09
2023-04-03T23:00:27.931Z,102698.22
2023-04-03T23:02:51.796Z,102695.56
2023-04-03T23:05:15.649Z,102694.72
2023-04-03T23:07:39.328Z,102693.09
2023-04-03T23:10:02.951Z,102693.97
2023-04-03T23:12:26.673Z,102699.31
2023-04-03T23:14:50.333Z,102693.19
2023-04-03T23:17:15.503Z,102694.97
2023-04-03T23:19:39.118Z,102696.81
2023-04-03T23:22:03.124Z,102695.06
2023-04-03T23:24:26.797Z,102689.75
2023-04-03T23:26:50.517Z,102702.16
2023-04-03T23:29:14.167Z,102694.25
2023-04-03T23:31:38.014Z,102694.28
2023-04-03T23:34:03.061Z,102694.31
2023-04-03T23:36:26.757Z,102696.09
2023-04-03T23:38:50.409Z,102689.97
2023-04-03T23:41:14.141Z,102693.50
2023-04-03T23:43:38.064Z,102690.91
2023-04-03T23:46:01.940Z,102690.03
2023-04-03T23:48:25.607Z,102689.22
2023-04-03T23:50:50.746Z,102685.72
2023-04-03T23:53:14.374Z,102690.13
2023-04-03T23:55:38.801Z,102686.66
2023-04-03T23:58:02.734Z,102690.13
